Portada
METAR-TAF:

METAR-TAF

Aeroports :

Harrison, Arkansas, Estats Units d'Amèrica

latitud: 36-15-42N, longitud: 093-09-17W, altitud: 416 m

Observació

L'informe es va fer fa 42 minuts, a les 13:53 UTC
Vent calma
Temperatura 2°C
Humitat 93%
Pressió 1013 hPa
Visibilitat: 16.1 km
Cel clar

METAR: KHRO 181353Z AUTO 00000KT 10SM CLR 02/01 A2991 RMK AO2 SLP133 T00220006

Hora: 08:35 (14:35 UTC)

Pronòstic

L'informe es va fer fa 3 hores i 10 minuts, a les 11:25 UTC
Pronòstic vàlid del 18 a les 12 UTC al 19 a les 12 UTC
Vent 4 kt amb direcció variable
Visibilitat: 10 km
Escasses núvols a una alçada de 25000 ft
A partir de les 18 a les 1900 UTC
Vent 7 kt del Sud/Sud-Oest amb ràfegues de 14 kt
Visibilitat: 10 km
Cel cobert a una alçada de 10000 ft
A partir de les 19 a les 0100 UTC
Vent 5 kt del Oest/Sud-Oest
Visibilitat: 10 km
Cel cobert a una alçada de 5000 ft

TAF: KHRO 181125Z 1812/1912 VRB04KT P6SM FEW250 FM181900 21007G14KT P6SM OVC100 FM190100 24005KT P6SM OVC050

Observacions i pronòstics meteorològics de més de 4000 aeroports (METAR i TAF).

Les estacions disponibles són els punts grocs i vermells al mapa.

Posi el ratolí al punt desitjat per veure el nom de l'estació.

Feu clic per veure les observacions i els pronòstics meteorològics.

Per canviar el mapa: feu clic els botons verds amb una creu de color negre per apropar; al botó verd amb un guió per allunyar la imatge; o en les fletxes verdes per a mapes adjacents.


METAR-TAF: